Terminal Aerodrome Forecast
Issued by NWS

Home | Current Version | Previous Version | Text Only | Print | Product List | Glossary On
Versions: 1 2 3 4 5 6 7 8 9 10 11 12 13 14 15 16
000
FTAK31 PAFA 260914 AAB
TAFAFA
TAF AMD
PAFA 260914Z 2609/2712 21006KT P6SM VCFG BKN035 BKN050 BKN200
     FM261800 24006KT P6SM SCT050 SCT100 BKN200=

USA.gov is the U.S. government's official web portal to all federal, state and local government web resources and services.